Juneau, Pennsylvania
Current Conditions -  °F | °C
As of 3:35 AM on Monday 22 Dec 2014 (Local Time) from KIDI Reporting Station
Few Clouds Few Clouds  
Wind Chill: 21°   Ceiling: Unl
Heat Index: 28°   Visibility: 10mi
Dew Point: 23°   Wind: 7mph
Humidity: 80%   Direction: 130°SE
Pressure: 30.18"   Gusts: NA
Location:  40.89°N, 78.96°W
Report Text: KIDI 220835Z AUTO 13006KT 10SM FEW032 M02/M05 A3018 RMK A01
Loading
Personal Weather Stations






























Interactive Weather Map New forecast layout! Learn more

10-Day Weather Forecast

Advertisements
Track Severe Weather on mobile